sensor_id;sensor_type;location;lat;lon;timestamp;P1;durP1;ratioP1;P2;durP2;ratioP2
28836;SDS011;50669;50.982;11.022;2022-10-16T00:00:45;1.90;;;0.90;;
28836;SDS011;50669;50.982;11.022;2022-10-16T00:03:11;0.68;;;0.55;;
28836;SDS011;50669;50.982;11.022;2022-10-16T00:05:40;0.95;;;0.88;;
28836;SDS011;50669;50.982;11.022;2022-10-16T00:08:11;0.70;;;0.70;;
28836;SDS011;50669;50.982;11.022;2022-10-16T00:10:38;1.02;;;0.50;;
28836;SDS011;50669;50.982;11.022;2022-10-16T00:13:06;1.40;;;0.52;;
28836;SDS011;50669;50.982;11.022;2022-10-16T00:15:33;1.77;;;0.70;;
28836;SDS011;50669;50.982;11.022;2022-10-16T00:18:03;0.45;;;0.40;;
28836;SDS011;50669;50.982;11.022;2022-10-16T00:20:30;2.15;;;0.80;;
28836;SDS011;50669;50.982;11.022;2022-10-16T00:22:58;1.58;;;0.88;;
28836;SDS011;50669;50.982;11.022;2022-10-16T00:25:24;4.10;;;3.20;;
28836;SDS011;50669;50.982;11.022;2022-10-16T00:27:49;2.42;;;1.08;;
28836;SDS011;50669;50.982;11.022;2022-10-16T00:30:15;1.33;;;0.65;;
28836;SDS011;50669;50.982;11.022;2022-10-16T00:32:43;1.67;;;0.95;;
28836;SDS011;50669;50.982;11.022;2022-10-16T00:35:11;1.10;;;0.90;;
28836;SDS011;50669;50.982;11.022;2022-10-16T00:37:37;0.80;;;0.80;;
28836;SDS011;50669;50.982;11.022;2022-10-16T00:40:02;0.80;;;0.70;;
28836;SDS011;50669;50.982;11.022;2022-10-16T00:42:30;1.13;;;0.65;;
28836;SDS011;50669;50.982;11.022;2022-10-16T00:44:56;1.08;;;0.82;;
28836;SDS011;50669;50.982;11.022;2022-10-16T00:50:02;0.65;;;0.65;;
28836;SDS011;50669;50.982;11.022;2022-10-16T00:52:43;3.03;;;0.88;;
28836;SDS011;50669;50.982;11.022;2022-10-16T00:55:11;1.13;;;0.80;;
28836;SDS011;50669;50.982;11.022;2022-10-16T00:57:37;0.88;;;0.68;;
28836;SDS011;50669;50.982;11.022;2022-10-16T01:00:06;0.95;;;0.65;;
28836;SDS011;50669;50.982;11.022;2022-10-16T01:02:36;0.82;;;0.60;;
28836;SDS011;50669;50.982;11.022;2022-10-16T01:05:02;0.65;;;0.65;;
28836;SDS011;50669;50.982;11.022;2022-10-16T01:16:12;1.00;;;0.88;;
28836;SDS011;50669;50.982;11.022;2022-10-16T01:18:43;2.13;;;0.93;;
28836;SDS011;50669;50.982;11.022;2022-10-16T01:21:17;2.10;;;1.13;;
28836;SDS011;50669;50.982;11.022;2022-10-16T01:35:07;2.42;;;1.20;;
28836;SDS011;50669;50.982;11.022;2022-10-16T01:37:51;1.60;;;1.00;;
28836;SDS011;50669;50.982;11.022;2022-10-16T01:40:18;1.08;;;0.82;;
28836;SDS011;50669;50.982;11.022;2022-10-16T01:42:46;1.48;;;1.00;;
28836;SDS011;50669;50.982;11.022;2022-10-16T01:45:17;1.10;;;0.90;;
28836;SDS011;50669;50.982;11.022;2022-10-16T01:47:47;2.88;;;1.02;;
28836;SDS011;50669;50.982;11.022;2022-10-16T01:50:16;1.45;;;0.82;;
28836;SDS011;50669;50.982;11.022;2022-10-16T01:52:45;1.73;;;1.30;;
28836;SDS011;50669;50.982;11.022;2022-10-16T01:55:16;2.67;;;0.93;;
28836;SDS011;50669;50.982;11.022;2022-10-16T01:57:46;2.22;;;1.08;;
28836;SDS011;50669;50.982;11.022;2022-10-16T02:00:14;1.25;;;1.00;;
28836;SDS011;50669;50.982;11.022;2022-10-16T02:02:43;1.13;;;0.80;;
28836;SDS011;50669;50.982;11.022;2022-10-16T02:05:28;1.42;;;1.30;;
28836;SDS011;50669;50.982;11.022;2022-10-16T02:08:07;2.58;;;1.02;;
28836;SDS011;50669;50.982;11.022;2022-10-16T02:10:34;3.88;;;1.20;;
28836;SDS011;50669;50.982;11.022;2022-10-16T02:15:41;1.67;;;1.05;;
28836;SDS011;50669;50.982;11.022;2022-10-16T02:18:09;1.23;;;0.88;;
28836;SDS011;50669;50.982;11.022;2022-10-16T02:21:19;1.10;;;1.00;;
28836;SDS011;50669;50.982;11.022;2022-10-16T02:23:35;1.20;;;1.10;;
28836;SDS011;50669;50.982;11.022;2022-10-16T02:26:12;1.27;;;1.05;;
28836;SDS011;50669;50.982;11.022;2022-10-16T02:31:15;1.10;;;0.70;;
28836;SDS011;50669;50.982;11.022;2022-10-16T02:33:43;2.05;;;1.40;;
28836;SDS011;50669;50.982;11.022;2022-10-16T02:36:13;2.78;;;1.50;;
28836;SDS011;50669;50.982;11.022;2022-10-16T02:38:39;2.40;;;1.00;;
28836;SDS011;50669;50.982;11.022;2022-10-16T02:41:05;1.65;;;0.95;;
28836;SDS011;50669;50.982;11.022;2022-10-16T02:43:33;1.25;;;1.13;;
28836;SDS011;50669;50.982;11.022;2022-10-16T02:46:01;0.80;;;0.80;;
28836;SDS011;50669;50.982;11.022;2022-10-16T02:48:27;1.83;;;1.00;;
28836;SDS011;50669;50.982;11.022;2022-10-16T02:50:52;2.78;;;0.90;;
28836;SDS011;50669;50.982;11.022;2022-10-16T02:53:21;0.80;;;0.80;;
28836;SDS011;50669;50.982;11.022;2022-10-16T02:55:46;1.08;;;0.90;;
28836;SDS011;50669;50.982;11.022;2022-10-16T02:58:12;1.10;;;1.00;;
28836;SDS011;50669;50.982;11.022;2022-10-16T03:00:38;1.20;;;1.00;;
28836;SDS011;50669;50.982;11.022;2022-10-16T03:03:06;3.72;;;1.70;;
28836;SDS011;50669;50.982;11.022;2022-10-16T03:05:34;1.63;;;1.33;;
28836;SDS011;50669;50.982;11.022;2022-10-16T03:08:02;1.98;;;1.10;;
28836;SDS011;50669;50.982;11.022;2022-10-16T03:10:27;1.80;;;1.33;;
28836;SDS011;50669;50.982;11.022;2022-10-16T03:12:53;4.63;;;1.88;;
28836;SDS011;50669;50.982;11.022;2022-10-16T03:15:19;1.73;;;1.10;;
28836;SDS011;50669;50.982;11.022;2022-10-16T03:17:44;1.80;;;1.10;;
28836;SDS011;50669;50.982;11.022;2022-10-16T03:20:12;1.50;;;1.40;;
28836;SDS011;50669;50.982;11.022;2022-10-16T03:22:38;2.58;;;1.42;;
28836;SDS011;50669;50.982;11.022;2022-10-16T03:25:04;2.30;;;1.60;;
28836;SDS011;50669;50.982;11.022;2022-10-16T03:27:29;3.13;;;0.90;;
28836;SDS011;50669;50.982;11.022;2022-10-16T03:29:55;2.17;;;1.00;;
28836;SDS011;50669;50.982;11.022;2022-10-16T03:32:21;3.53;;;1.35;;
28836;SDS011;50669;50.982;11.022;2022-10-16T03:34:46;1.50;;;1.10;;
28836;SDS011;50669;50.982;11.022;2022-10-16T03:37:14;1.40;;;1.30;;
28836;SDS011;50669;50.982;11.022;2022-10-16T03:39:40;3.38;;;1.00;;
28836;SDS011;50669;50.982;11.022;2022-10-16T03:42:05;6.82;;;1.65;;
28836;SDS011;50669;50.982;11.022;2022-10-16T03:44:34;3.88;;;2.00;;
28836;SDS011;50669;50.982;11.022;2022-10-16T03:47:01;1.77;;;1.23;;
28836;SDS011;50669;50.982;11.022;2022-10-16T03:49:30;2.25;;;1.20;;
28836;SDS011;50669;50.982;11.022;2022-10-16T03:51:55;2.75;;;1.38;;
28836;SDS011;50669;50.982;11.022;2022-10-16T03:54:21;1.58;;;1.40;;
28836;SDS011;50669;50.982;11.022;2022-10-16T03:56:49;1.73;;;1.40;;
28836;SDS011;50669;50.982;11.022;2022-10-16T03:59:15;2.28;;;1.20;;
28836;SDS011;50669;50.982;11.022;2022-10-16T04:01:40;2.65;;;1.10;;
28836;SDS011;50669;50.982;11.022;2022-10-16T04:04:06;3.00;;;1.35;;
28836;SDS011;50669;50.982;11.022;2022-10-16T04:06:34;1.40;;;1.10;;
28836;SDS011;50669;50.982;11.022;2022-10-16T04:08:59;1.38;;;0.85;;
28836;SDS011;50669;50.982;11.022;2022-10-16T04:11:25;2.60;;;1.08;;
28836;SDS011;50669;50.982;11.022;2022-10-16T04:13:53;2.80;;;0.93;;
28836;SDS011;50669;50.982;11.022;2022-10-16T04:16:18;1.15;;;0.88;;
28836;SDS011;50669;50.982;11.022;2022-10-16T04:18:44;1.65;;;1.05;;
28836;SDS011;50669;50.982;11.022;2022-10-16T04:21:10;1.42;;;0.90;;
28836;SDS011;50669;50.982;11.022;2022-10-16T04:23:35;2.00;;;1.35;;
28836;SDS011;50669;50.982;11.022;2022-10-16T04:26:04;2.05;;;1.42;;
28836;SDS011;50669;50.982;11.022;2022-10-16T04:28:32;1.05;;;0.95;;
28836;SDS011;50669;50.982;11.022;2022-10-16T04:30:57;2.08;;;1.20;;
28836;SDS011;50669;50.982;11.022;2022-10-16T04:33:23;0.88;;;0.73;;
28836;SDS011;50669;50.982;11.022;2022-10-16T04:35:56;1.00;;;0.90;;
28836;SDS011;50669;50.982;11.022;2022-10-16T04:38:23;2.47;;;1.10;;
28836;SDS011;50669;50.982;11.022;2022-10-16T04:40:48;4.32;;;1.23;;
28836;SDS011;50669;50.982;11.022;2022-10-16T04:43:14;1.90;;;1.10;;
28836;SDS011;50669;50.982;11.022;2022-10-16T04:45:40;2.22;;;1.10;;
28836;SDS011;50669;50.982;11.022;2022-10-16T04:48:05;1.23;;;1.00;;
28836;SDS011;50669;50.982;11.022;2022-10-16T04:50:31;1.30;;;0.90;;
28836;SDS011;50669;50.982;11.022;2022-10-16T04:52:56;1.02;;;0.90;;
28836;SDS011;50669;50.982;11.022;2022-10-16T04:55:22;0.90;;;0.80;;
28836;SDS011;50669;50.982;11.022;2022-10-16T04:57:50;3.40;;;1.30;;
28836;SDS011;50669;50.982;11.022;2022-10-16T05:00:16;2.95;;;1.27;;
28836;SDS011;50669;50.982;11.022;2022-10-16T05:02:44;1.17;;;1.02;;
28836;SDS011;50669;50.982;11.022;2022-10-16T05:05:09;1.10;;;0.80;;
28836;SDS011;50669;50.982;11.022;2022-10-16T05:07:35;1.05;;;0.90;;
28836;SDS011;50669;50.982;11.022;2022-10-16T05:10:00;2.58;;;1.10;;
28836;SDS011;50669;50.982;11.022;2022-10-16T05:12:26;1.10;;;0.95;;
28836;SDS011;50669;50.982;11.022;2022-10-16T05:14:52;4.22;;;2.80;;
28836;SDS011;50669;50.982;11.022;2022-10-16T05:17:23;3.03;;;1.90;;
28836;SDS011;50669;50.982;11.022;2022-10-16T05:19:51;1.60;;;1.30;;
28836;SDS011;50669;50.982;11.022;2022-10-16T05:22:17;2.70;;;1.30;;
28836;SDS011;50669;50.982;11.022;2022-10-16T05:24:45;2.03;;;1.30;;
28836;SDS011;50669;50.982;11.022;2022-10-16T05:27:11;3.78;;;1.48;;
28836;SDS011;50669;50.982;11.022;2022-10-16T05:29:43;1.55;;;1.35;;
28836;SDS011;50669;50.982;11.022;2022-10-16T05:32:16;1.47;;;1.30;;
28836;SDS011;50669;50.982;11.022;2022-10-16T05:34:44;3.08;;;1.20;;
28836;SDS011;50669;50.982;11.022;2022-10-16T05:37:12;2.90;;;1.20;;
28836;SDS011;50669;50.982;11.022;2022-10-16T05:39:38;1.77;;;1.52;;
28836;SDS011;50669;50.982;11.022;2022-10-16T05:42:06;3.78;;;1.70;;
28836;SDS011;50669;50.982;11.022;2022-10-16T05:44:32;2.20;;;1.60;;
28836;SDS011;50669;50.982;11.022;2022-10-16T05:46:58;1.90;;;1.70;;
28836;SDS011;50669;50.982;11.022;2022-10-16T05:49:26;2.63;;;1.77;;
28836;SDS011;50669;50.982;11.022;2022-10-16T05:51:54;2.65;;;2.00;;
28836;SDS011;50669;50.982;11.022;2022-10-16T05:54:22;2.50;;;2.15;;
28836;SDS011;50669;50.982;11.022;2022-10-16T05:56:50;3.65;;;2.53;;
28836;SDS011;50669;50.982;11.022;2022-10-16T05:59:16;4.68;;;2.47;;
28836;SDS011;50669;50.982;11.022;2022-10-16T06:01:41;2.38;;;2.17;;
28836;SDS011;50669;50.982;11.022;2022-10-16T06:04:09;3.70;;;2.63;;
28836;SDS011;50669;50.982;11.022;2022-10-16T06:06:35;2.88;;;2.35;;
28836;SDS011;50669;50.982;11.022;2022-10-16T06:09:01;4.63;;;2.30;;
28836;SDS011;50669;50.982;11.022;2022-10-16T06:11:29;5.60;;;2.63;;
28836;SDS011;50669;50.982;11.022;2022-10-16T06:13:57;3.72;;;2.40;;
28836;SDS011;50669;50.982;11.022;2022-10-16T06:16:31;2.40;;;2.05;;
28836;SDS011;50669;50.982;11.022;2022-10-16T06:18:59;2.45;;;2.10;;
28836;SDS011;50669;50.982;11.022;2022-10-16T06:21:27;2.78;;;2.28;;
28836;SDS011;50669;50.982;11.022;2022-10-16T06:23:56;3.08;;;2.20;;
28836;SDS011;50669;50.982;11.022;2022-10-16T06:26:23;2.88;;;2.25;;
28836;SDS011;50669;50.982;11.022;2022-10-16T06:28:56;4.35;;;2.17;;
28836;SDS011;50669;50.982;11.022;2022-10-16T06:31:23;2.22;;;1.63;;
28836;SDS011;50669;50.982;11.022;2022-10-16T06:33:54;1.80;;;1.52;;
28836;SDS011;50669;50.982;11.022;2022-10-16T06:36:23;2.08;;;1.88;;
28836;SDS011;50669;50.982;11.022;2022-10-16T06:38:50;2.33;;;1.77;;
28836;SDS011;50669;50.982;11.022;2022-10-16T06:41:16;1.80;;;1.45;;
28836;SDS011;50669;50.982;11.022;2022-10-16T06:43:43;2.95;;;1.20;;
28836;SDS011;50669;50.982;11.022;2022-10-16T06:46:13;1.38;;;1.20;;
28836;SDS011;50669;50.982;11.022;2022-10-16T06:48:42;1.38;;;1.20;;
28836;SDS011;50669;50.982;11.022;2022-10-16T06:51:15;2.35;;;1.17;;
28836;SDS011;50669;50.982;11.022;2022-10-16T06:53:48;2.33;;;1.20;;
28836;SDS011;50669;50.982;11.022;2022-10-16T06:56:18;2.35;;;0.82;;
28836;SDS011;50669;50.982;11.022;2022-10-16T06:58:45;1.00;;;0.90;;
28836;SDS011;50669;50.982;11.022;2022-10-16T07:01:15;1.15;;;0.77;;
28836;SDS011;50669;50.982;11.022;2022-10-16T07:03:42;2.30;;;0.90;;
28836;SDS011;50669;50.982;11.022;2022-10-16T07:06:10;1.05;;;0.68;;
28836;SDS011;50669;50.982;11.022;2022-10-16T07:08:40;0.68;;;0.63;;
28836;SDS011;50669;50.982;11.022;2022-10-16T07:11:08;0.80;;;0.60;;
28836;SDS011;50669;50.982;11.022;2022-10-16T07:13:38;0.85;;;0.50;;
28836;SDS011;50669;50.982;11.022;2022-10-16T07:16:14;1.58;;;0.60;;
28836;SDS011;50669;50.982;11.022;2022-10-16T07:18:45;2.55;;;0.77;;
28836;SDS011;50669;50.982;11.022;2022-10-16T07:23:39;1.80;;;0.63;;
28836;SDS011;50669;50.982;11.022;2022-10-16T07:26:05;0.80;;;0.60;;
28836;SDS011;50669;50.982;11.022;2022-10-16T07:28:34;0.60;;;0.50;;
28836;SDS011;50669;50.982;11.022;2022-10-16T07:31:04;0.50;;;0.50;;
28836;SDS011;50669;50.982;11.022;2022-10-16T07:33:31;0.57;;;0.55;;
28836;SDS011;50669;50.982;11.022;2022-10-16T07:36:01;1.00;;;0.70;;
28836;SDS011;50669;50.982;11.022;2022-10-16T07:38:29;0.45;;;0.40;;
28836;SDS011;50669;50.982;11.022;2022-10-16T07:41:05;1.63;;;0.40;;
28836;SDS011;50669;50.982;11.022;2022-10-16T07:43:33;0.75;;;0.40;;
28836;SDS011;50669;50.982;11.022;2022-10-16T07:46:02;0.55;;;0.45;;
28836;SDS011;50669;50.982;11.022;2022-10-16T07:48:28;0.65;;;0.30;;
28836;SDS011;50669;50.982;11.022;2022-10-16T07:51:02;0.45;;;0.30;;
28836;SDS011;50669;50.982;11.022;2022-10-16T07:53:29;1.05;;;0.55;;
28836;SDS011;50669;50.982;11.022;2022-10-16T07:55:59;0.93;;;0.50;;
28836;SDS011;50669;50.982;11.022;2022-10-16T07:58:28;1.00;;;0.70;;
28836;SDS011;50669;50.982;11.022;2022-10-16T08:00:55;0.40;;;0.40;;
28836;SDS011;50669;50.982;11.022;2022-10-16T08:03:24;1.10;;;0.40;;
28836;SDS011;50669;50.982;11.022;2022-10-16T08:05:50;0.75;;;0.50;;
28836;SDS011;50669;50.982;11.022;2022-10-16T08:08:17;0.70;;;0.50;;
28836;SDS011;50669;50.982;11.022;2022-10-16T08:10:43;1.80;;;0.57;;
28836;SDS011;50669;50.982;11.022;2022-10-16T08:13:15;0.63;;;0.55;;
28836;SDS011;50669;50.982;11.022;2022-10-16T08:15:44;1.48;;;0.60;;
28836;SDS011;50669;50.982;11.022;2022-10-16T08:18:10;2.05;;;0.57;;
28836;SDS011;50669;50.982;11.022;2022-10-16T08:20:40;0.55;;;0.45;;
28836;SDS011;50669;50.982;11.022;2022-10-16T08:23:06;0.60;;;0.60;;
28836;SDS011;50669;50.982;11.022;2022-10-16T08:25:36;0.43;;;0.43;;
28836;SDS011;50669;50.982;11.022;2022-10-16T08:28:05;0.93;;;0.60;;
28836;SDS011;50669;50.982;11.022;2022-10-16T08:30:33;2.30;;;0.50;;
28836;SDS011;50669;50.982;11.022;2022-10-16T08:32:59;1.67;;;0.40;;
28836;SDS011;50669;50.982;11.022;2022-10-16T08:35:25;1.48;;;0.50;;
28836;SDS011;50669;50.982;11.022;2022-10-16T08:37:51;0.47;;;0.40;;
28836;SDS011;50669;50.982;11.022;2022-10-16T08:40:20;0.32;;;0.32;;
28836;SDS011;50669;50.982;11.022;2022-10-16T08:48:35;1.15;;;0.50;;
28836;SDS011;50669;50.982;11.022;2022-10-16T08:51:06;0.43;;;0.40;;
28836;SDS011;50669;50.982;11.022;2022-10-16T08:53:39;0.73;;;0.40;;
28836;SDS011;50669;50.982;11.022;2022-10-16T08:56:17;1.42;;;0.50;;
28836;SDS011;50669;50.982;11.022;2022-10-16T08:58:46;0.70;;;0.60;;
28836;SDS011;50669;50.982;11.022;2022-10-16T09:01:14;1.70;;;0.60;;
28836;SDS011;50669;50.982;11.022;2022-10-16T09:19:46;0.50;;;0.47;;
28836;SDS011;50669;50.982;11.022;2022-10-16T09:22:20;0.57;;;0.40;;
28836;SDS011;50669;50.982;11.022;2022-10-16T09:24:50;0.52;;;0.52;;
28836;SDS011;50669;50.982;11.022;2022-10-16T09:27:16;0.70;;;0.70;;
28836;SDS011;50669;50.982;11.022;2022-10-16T09:29:42;0.77;;;0.60;;
28836;SDS011;50669;50.982;11.022;2022-10-16T09:32:14;1.98;;;0.85;;
28836;SDS011;50669;50.982;11.022;2022-10-16T09:34:50;0.60;;;0.50;;
28836;SDS011;50669;50.982;11.022;2022-10-16T09:37:22;0.82;;;0.70;;
28836;SDS011;50669;50.982;11.022;2022-10-16T09:39:53;0.70;;;0.63;;
28836;SDS011;50669;50.982;11.022;2022-10-16T09:44:53;1.80;;;0.90;;
28836;SDS011;50669;50.982;11.022;2022-10-16T09:47:25;1.05;;;0.90;;
28836;SDS011;50669;50.982;11.022;2022-10-16T09:52:27;1.08;;;0.70;;
28836;SDS011;50669;50.982;11.022;2022-10-16T09:54:54;2.78;;;0.90;;
28836;SDS011;50669;50.982;11.022;2022-10-16T09:57:22;1.05;;;0.88;;
28836;SDS011;50669;50.982;11.022;2022-10-16T09:59:49;1.70;;;0.68;;
28836;SDS011;50669;50.982;11.022;2022-10-16T10:02:17;3.22;;;0.73;;
28836;SDS011;50669;50.982;11.022;2022-10-16T10:04:52;1.15;;;1.02;;
28836;SDS011;50669;50.982;11.022;2022-10-16T10:12:22;1.02;;;0.77;;
28836;SDS011;50669;50.982;11.022;2022-10-16T10:14:50;1.77;;;0.80;;
28836;SDS011;50669;50.982;11.022;2022-10-16T10:17:22;1.52;;;0.63;;
28836;SDS011;50669;50.982;11.022;2022-10-16T10:19:53;0.70;;;0.70;;
28836;SDS011;50669;50.982;11.022;2022-10-16T10:22:30;1.60;;;0.93;;
28836;SDS011;50669;50.982;11.022;2022-10-16T10:30:22;3.33;;;0.70;;
28836;SDS011;50669;50.982;11.022;2022-10-16T10:41:02;5.60;;;0.80;;
28836;SDS011;50669;50.982;11.022;2022-10-16T10:46:09;2.08;;;0.70;;
28836;SDS011;50669;50.982;11.022;2022-10-16T10:56:58;7.20;;;3.03;;
28836;SDS011;50669;50.982;11.022;2022-10-16T11:07:30;0.93;;;0.77;;
28836;SDS011;50669;50.982;11.022;2022-10-16T11:13:20;1.50;;;0.77;;
28836;SDS011;50669;50.982;11.022;2022-10-16T11:15:56;1.05;;;0.95;;
28836;SDS011;50669;50.982;11.022;2022-10-16T11:18:30;1.58;;;1.30;;
28836;SDS011;50669;50.982;11.022;2022-10-16T11:21:09;1.33;;;1.10;;
28836;SDS011;50669;50.982;11.022;2022-10-16T11:26:41;2.03;;;1.10;;
28836;SDS011;50669;50.982;11.022;2022-10-16T11:29:20;4.03;;;1.30;;
28836;SDS011;50669;50.982;11.022;2022-10-16T11:31:54;1.17;;;1.08;;
28836;SDS011;50669;50.982;11.022;2022-10-16T11:39:46;1.90;;;1.10;;
28836;SDS011;50669;50.982;11.022;2022-10-16T11:42:16;1.50;;;1.35;;
28836;SDS011;50669;50.982;11.022;2022-10-16T11:50:11;2.55;;;1.17;;
28836;SDS011;50669;50.982;11.022;2022-10-16T11:52:53;2.00;;;1.13;;
28836;SDS011;50669;50.982;11.022;2022-10-16T11:55:39;3.05;;;2.05;;
28836;SDS011;50669;50.982;11.022;2022-10-16T11:58:06;1.90;;;1.50;;
28836;SDS011;50669;50.982;11.022;2022-10-16T12:03:28;1.73;;;1.35;;
28836;SDS011;50669;50.982;11.022;2022-10-16T12:08:48;2.85;;;1.10;;
28836;SDS011;50669;50.982;11.022;2022-10-16T12:11:37;1.80;;;1.08;;
28836;SDS011;50669;50.982;11.022;2022-10-16T12:16:59;1.42;;;1.20;;
28836;SDS011;50669;50.982;11.022;2022-10-16T12:19:27;2.03;;;1.00;;
28836;SDS011;50669;50.982;11.022;2022-10-16T12:21:58;1.35;;;1.13;;
28836;SDS011;50669;50.982;11.022;2022-10-16T12:24:33;1.90;;;0.90;;
28836;SDS011;50669;50.982;11.022;2022-10-16T12:27:02;1.90;;;0.80;;
28836;SDS011;50669;50.982;11.022;2022-10-16T12:31:55;1.67;;;1.02;;
28836;SDS011;50669;50.982;11.022;2022-10-16T12:34:39;3.33;;;1.40;;
28836;SDS011;50669;50.982;11.022;2022-10-16T12:37:31;2.83;;;1.50;;
28836;SDS011;50669;50.982;11.022;2022-10-16T12:40:16;2.05;;;1.50;;
28836;SDS011;50669;50.982;11.022;2022-10-16T12:42:49;1.85;;;1.13;;
28836;SDS011;50669;50.982;11.022;2022-10-16T12:47:52;2.80;;;1.17;;
28836;SDS011;50669;50.982;11.022;2022-10-16T12:50:31;0.85;;;0.65;;
28836;SDS011;50669;50.982;11.022;2022-10-16T12:53:03;0.68;;;0.50;;
28836;SDS011;50669;50.982;11.022;2022-10-16T13:18:12;0.50;;;0.30;;
28836;SDS011;50669;50.982;11.022;2022-10-16T13:21:20;0.60;;;0.60;;
28836;SDS011;50669;50.982;11.022;2022-10-16T13:24:02;0.80;;;0.60;;
28836;SDS011;50669;50.982;11.022;2022-10-16T13:29:30;0.60;;;0.60;;
28836;SDS011;50669;50.982;11.022;2022-10-16T13:31:57;1.10;;;0.70;;
28836;SDS011;50669;50.982;11.022;2022-10-16T13:34:28;0.60;;;0.50;;
28836;SDS011;50669;50.982;11.022;2022-10-16T13:36:57;1.10;;;0.50;;
28836;SDS011;50669;50.982;11.022;2022-10-16T13:44:43;0.60;;;0.60;;
28836;SDS011;50669;50.982;11.022;2022-10-16T13:47:14;0.73;;;0.60;;
28836;SDS011;50669;50.982;11.022;2022-10-16T13:50:00;1.27;;;0.73;;
28836;SDS011;50669;50.982;11.022;2022-10-16T13:52:43;0.63;;;0.63;;
28836;SDS011;50669;50.982;11.022;2022-10-16T13:55:15;1.45;;;0.57;;
28836;SDS011;50669;50.982;11.022;2022-10-16T13:57:47;0.70;;;0.68;;
28836;SDS011;50669;50.982;11.022;2022-10-16T14:00:25;0.82;;;0.60;;
28836;SDS011;50669;50.982;11.022;2022-10-16T14:03:16;2.88;;;2.40;;
28836;SDS011;50669;50.982;11.022;2022-10-16T14:05:55;1.67;;;1.15;;
28836;SDS011;50669;50.982;11.022;2022-10-16T14:08:26;2.55;;;1.02;;
28836;SDS011;50669;50.982;11.022;2022-10-16T14:10:57;1.10;;;0.73;;
28836;SDS011;50669;50.982;11.022;2022-10-16T14:13:35;0.70;;;0.50;;
28836;SDS011;50669;50.982;11.022;2022-10-16T14:16:10;2.60;;;0.60;;
28836;SDS011;50669;50.982;11.022;2022-10-16T14:18:57;1.48;;;0.50;;
28836;SDS011;50669;50.982;11.022;2022-10-16T14:21:34;0.57;;;0.40;;
28836;SDS011;50669;50.982;11.022;2022-10-16T14:24:12;1.90;;;0.85;;
28836;SDS011;50669;50.982;11.022;2022-10-16T14:26:44;0.73;;;0.55;;
28836;SDS011;50669;50.982;11.022;2022-10-16T14:29:13;0.47;;;0.47;;
28836;SDS011;50669;50.982;11.022;2022-10-16T14:31:42;1.00;;;0.52;;
28836;SDS011;50669;50.982;11.022;2022-10-16T14:34:22;2.13;;;0.50;;
28836;SDS011;50669;50.982;11.022;2022-10-16T14:37:08;3.28;;;1.60;;
28836;SDS011;50669;50.982;11.022;2022-10-16T14:39:49;4.18;;;1.02;;
28836;SDS011;50669;50.982;11.022;2022-10-16T14:42:16;4.40;;;2.88;;
28836;SDS011;50669;50.982;11.022;2022-10-16T14:44:45;1.52;;;1.05;;
28836;SDS011;50669;50.982;11.022;2022-10-16T14:47:16;0.93;;;0.60;;
28836;SDS011;50669;50.982;11.022;2022-10-16T14:49:49;0.60;;;0.60;;
28836;SDS011;50669;50.982;11.022;2022-10-16T14:52:16;1.05;;;0.70;;
28836;SDS011;50669;50.982;11.022;2022-10-16T14:54:47;1.08;;;0.85;;
28836;SDS011;50669;50.982;11.022;2022-10-16T14:57:20;0.95;;;0.70;;
28836;SDS011;50669;50.982;11.022;2022-10-16T14:59:49;0.80;;;0.77;;
28836;SDS011;50669;50.982;11.022;2022-10-16T15:02:28;1.13;;;0.88;;
28836;SDS011;50669;50.982;11.022;2022-10-16T15:04:56;1.38;;;0.80;;
28836;SDS011;50669;50.982;11.022;2022-10-16T15:07:25;1.48;;;0.65;;
28836;SDS011;50669;50.982;11.022;2022-10-16T15:09:50;0.60;;;0.60;;
28836;SDS011;50669;50.982;11.022;2022-10-16T15:12:16;1.25;;;0.90;;
28836;SDS011;50669;50.982;11.022;2022-10-16T15:14:42;0.93;;;0.68;;
28836;SDS011;50669;50.982;11.022;2022-10-16T15:17:11;2.67;;;1.27;;
28836;SDS011;50669;50.982;11.022;2022-10-16T15:19:37;1.40;;;0.90;;
28836;SDS011;50669;50.982;11.022;2022-10-16T15:22:03;2.03;;;1.00;;
28836;SDS011;50669;50.982;11.022;2022-10-16T15:24:28;3.53;;;1.10;;
28836;SDS011;50669;50.982;11.022;2022-10-16T15:26:55;1.92;;;1.02;;
28836;SDS011;50669;50.982;11.022;2022-10-16T15:29:20;3.00;;;2.53;;
28836;SDS011;50669;50.982;11.022;2022-10-16T15:31:46;3.65;;;1.63;;
28836;SDS011;50669;50.982;11.022;2022-10-16T15:34:14;2.33;;;1.25;;
28836;SDS011;50669;50.982;11.022;2022-10-16T15:36:41;1.23;;;1.00;;
28836;SDS011;50669;50.982;11.022;2022-10-16T15:39:13;2.70;;;1.10;;
28836;SDS011;50669;50.982;11.022;2022-10-16T15:41:41;1.23;;;1.00;;
28836;SDS011;50669;50.982;11.022;2022-10-16T15:44:10;1.10;;;1.00;;
28836;SDS011;50669;50.982;11.022;2022-10-16T15:46:35;1.33;;;0.73;;
28836;SDS011;50669;50.982;11.022;2022-10-16T15:49:02;1.77;;;0.80;;
28836;SDS011;50669;50.982;11.022;2022-10-16T15:51:29;1.35;;;1.15;;
28836;SDS011;50669;50.982;11.022;2022-10-16T15:54:00;6.07;;;5.05;;
28836;SDS011;50669;50.982;11.022;2022-10-16T15:56:28;1.90;;;1.60;;
28836;SDS011;50669;50.982;11.022;2022-10-16T15:58:58;3.85;;;1.42;;
28836;SDS011;50669;50.982;11.022;2022-10-16T16:01:25;6.63;;;2.28;;
28836;SDS011;50669;50.982;11.022;2022-10-16T16:03:56;2.88;;;1.30;;
28836;SDS011;50669;50.982;11.022;2022-10-16T16:06:24;3.67;;;1.20;;
28836;SDS011;50669;50.982;11.022;2022-10-16T16:08:50;2.83;;;2.33;;
28836;SDS011;50669;50.982;11.022;2022-10-16T16:11:18;4.30;;;1.98;;
28836;SDS011;50669;50.982;11.022;2022-10-16T16:13:48;2.30;;;1.95;;
28836;SDS011;50669;50.982;11.022;2022-10-16T16:16:14;4.32;;;2.25;;
28836;SDS011;50669;50.982;11.022;2022-10-16T16:18:41;4.22;;;2.00;;
28836;SDS011;50669;50.982;11.022;2022-10-16T16:21:09;4.28;;;3.75;;
28836;SDS011;50669;50.982;11.022;2022-10-16T16:23:38;7.05;;;4.50;;
28836;SDS011;50669;50.982;11.022;2022-10-16T16:28:37;11.80;;;6.90;;
28836;SDS011;50669;50.982;11.022;2022-10-16T16:31:03;9.45;;;5.28;;
28836;SDS011;50669;50.982;11.022;2022-10-16T16:33:29;5.90;;;3.90;;
28836;SDS011;50669;50.982;11.022;2022-10-16T16:36:00;4.55;;;2.70;;
28836;SDS011;50669;50.982;11.022;2022-10-16T16:38:31;3.35;;;2.00;;
28836;SDS011;50669;50.982;11.022;2022-10-16T16:40:57;2.92;;;2.53;;
28836;SDS011;50669;50.982;11.022;2022-10-16T16:43:26;5.63;;;2.45;;
28836;SDS011;50669;50.982;11.022;2022-10-16T16:45:52;5.00;;;3.05;;
28836;SDS011;50669;50.982;11.022;2022-10-16T16:48:19;4.78;;;3.83;;
28836;SDS011;50669;50.982;11.022;2022-10-16T16:50:45;5.43;;;3.72;;
28836;SDS011;50669;50.982;11.022;2022-10-16T16:53:13;6.00;;;3.40;;
28836;SDS011;50669;50.982;11.022;2022-10-16T16:55:44;6.35;;;4.88;;
28836;SDS011;50669;50.982;11.022;2022-10-16T16:58:11;5.03;;;3.17;;
28836;SDS011;50669;50.982;11.022;2022-10-16T17:00:37;5.50;;;4.15;;
28836;SDS011;50669;50.982;11.022;2022-10-16T17:03:10;9.77;;;5.10;;
28836;SDS011;50669;50.982;11.022;2022-10-16T17:05:38;8.70;;;3.97;;
28836;SDS011;50669;50.982;11.022;2022-10-16T17:08:06;4.03;;;3.08;;
28836;SDS011;50669;50.982;11.022;2022-10-16T17:10:41;12.45;;;6.00;;
28836;SDS011;50669;50.982;11.022;2022-10-16T17:13:08;9.32;;;5.25;;
28836;SDS011;50669;50.982;11.022;2022-10-16T17:15:33;19.55;;;13.07;;
28836;SDS011;50669;50.982;11.022;2022-10-16T17:17:59;8.95;;;6.57;;
28836;SDS011;50669;50.982;11.022;2022-10-16T17:20:24;10.10;;;6.30;;
28836;SDS011;50669;50.982;11.022;2022-10-16T17:22:50;6.97;;;4.82;;
28836;SDS011;50669;50.982;11.022;2022-10-16T17:25:18;7.35;;;4.97;;